Ulan Bator, Mongolia
Current Conditions -  °F | °C
As of 9:30 AM on Sunday 26 Oct 2014 (Local Time) from ZMUB Reporting Station
Clear Clear  
Wind Chill: 19°   Ceiling: Unl
Heat Index: 19°   Visibility: 6mi
Dew Point:   Wind: 0mph
Humidity: 49%   Direction: NA
Pressure: 30.42"   Gusts: NA
Location:  47.92°N, 106.91°E
Report Text: ZMUB 260130Z 00000MPS CAVOK M07/M16 Q1030 NOSIG RMK QFE663.8 42
Loading
Personal Weather Stations






























Interactive Weather Map New forecast layout! Learn more

10-Day Weather Forecast

Advertisements
Track Severe Weather on mobile